createdAt,value
2022-12-13T00:01:25.860Z,9.53
2022-12-13T00:03:53.596Z,9.00
2022-12-13T00:06:21.254Z,9.03
2022-12-13T00:08:49.037Z,10.17
2022-12-13T00:11:18.179Z,8.80
2022-12-13T00:13:47.026Z,9.77
2022-12-13T00:16:17.479Z,8.83
2022-12-13T00:18:49.226Z,8.93
2022-12-13T00:21:19.404Z,10.50
2022-12-13T00:23:47.609Z,9.33
2022-12-13T00:26:17.787Z,8.03
2022-12-13T00:28:48.056Z,7.83
2022-12-13T00:31:53.343Z,8.80
2022-12-13T00:34:05.295Z,8.37
2022-12-13T00:36:32.997Z,7.07
2022-12-13T00:39:03.849Z,8.03
2022-12-13T00:41:33.845Z,7.13
2022-12-13T00:44:02.126Z,8.00
2022-12-13T00:46:31.640Z,7.90
2022-12-13T00:49:00.603Z,8.93
2022-12-13T00:51:29.650Z,7.57
2022-12-13T00:53:57.342Z,7.17
2022-12-13T00:56:29.518Z,6.10
2022-12-13T00:58:57.914Z,6.03
2022-12-13T01:01:28.162Z,5.37
2022-12-13T01:03:58.908Z,5.20
2022-12-13T01:06:29.684Z,6.73
2022-12-13T01:08:57.488Z,6.47
2022-12-13T01:11:25.237Z,6.20
2022-12-13T01:13:52.985Z,5.37
2022-12-13T01:16:20.935Z,6.33
2022-12-13T01:18:48.659Z,4.50
2022-12-13T01:21:20.106Z,4.33
2022-12-13T01:23:47.759Z,4.73
2022-12-13T01:26:18.106Z,5.60
2022-12-13T01:28:45.820Z,4.47
2022-12-13T01:31:14.834Z,4.40
2022-12-13T01:33:42.793Z,4.47
2022-12-13T01:36:13.295Z,5.57
2022-12-13T01:38:42.553Z,4.50
2022-12-13T01:41:17.161Z,3.63
2022-12-13T01:43:54.804Z,5.30
2022-12-13T01:46:22.959Z,3.73
2022-12-13T01:48:57.558Z,4.17
2022-12-13T01:51:27.853Z,4.50
2022-12-13T01:53:59.259Z,4.17
2022-12-13T01:56:30.378Z,4.27
2022-12-13T01:58:58.823Z,3.47
2022-12-13T02:01:26.763Z,3.80
2022-12-13T02:03:54.479Z,3.53
2022-12-13T02:06:26.534Z,3.60
2022-12-13T02:08:55.787Z,3.20
2022-12-13T02:11:23.774Z,3.80
2022-12-13T02:13:51.465Z,3.27
2022-12-13T02:16:24.442Z,2.77
2022-12-13T02:19:03.627Z,4.40
2022-12-13T02:21:34.978Z,3.33
2022-12-13T02:24:31.059Z,3.83
2022-12-13T02:27:12.681Z,3.37
2022-12-13T02:30:17.308Z,3.40
2022-12-13T02:32:58.789Z,2.60
2022-12-13T02:35:29.615Z,2.67
2022-12-13T02:38:06.025Z,2.43
2022-12-13T02:40:37.608Z,2.57
2022-12-13T02:43:08.119Z,2.73
2022-12-13T02:45:39.710Z,2.70
2022-12-13T02:48:10.637Z,2.93
2022-12-13T02:50:39.322Z,2.67
2022-12-13T02:53:08.211Z,2.97
2022-12-13T02:55:39.257Z,2.30
2022-12-13T02:58:07.107Z,2.57
2022-12-13T03:00:44.173Z,2.47
2022-12-13T03:03:21.905Z,2.90
2022-12-13T03:06:13.073Z,2.73
2022-12-13T03:08:49.439Z,2.53
2022-12-13T03:11:19.013Z,2.33
2022-12-13T03:13:50.071Z,2.30
2022-12-13T03:16:31.037Z,2.03
2022-12-13T03:19:02.094Z,2.47
2022-12-13T03:21:30.211Z,2.47
2022-12-13T03:23:57.949Z,2.10
2022-12-13T03:26:26.936Z,2.70
2022-12-13T03:28:54.966Z,3.47
2022-12-13T03:31:23.220Z,2.33
2022-12-13T03:33:50.926Z,1.80
2022-12-13T03:36:20.299Z,2.10
2022-12-13T03:38:50.459Z,1.60
2022-12-13T03:41:19.810Z,1.73
2022-12-13T03:43:47.607Z,2.80
2022-12-13T03:46:15.548Z,1.90
2022-12-13T03:48:43.265Z,2.13
2022-12-13T03:51:10.941Z,1.60
2022-12-13T03:53:40.009Z,2.10
2022-12-13T03:56:08.007Z,1.87
2022-12-13T03:58:37.959Z,2.23
2022-12-13T04:01:07.642Z,2.50
2022-12-13T04:03:35.919Z,2.17
2022-12-13T04:06:03.681Z,2.40
2022-12-13T04:08:31.466Z,3.00
2022-12-13T04:11:20.570Z,2.17
2022-12-13T04:13:47.283Z,2.60
2022-12-13T04:16:14.988Z,2.60
2022-12-13T04:18:42.655Z,2.30
2022-12-13T04:21:10.329Z,2.60
2022-12-13T04:23:38.024Z,1.90
2022-12-13T04:26:07.260Z,2.43
2022-12-13T04:28:34.993Z,2.10
2022-12-13T04:31:02.701Z,2.03
2022-12-13T04:33:32.641Z,3.45
2022-12-13T04:36:00.515Z,2.10
2022-12-13T04:38:28.313Z,1.93
2022-12-13T04:41:07.238Z,1.90
2022-12-13T04:43:35.019Z,1.63
2022-12-13T04:46:02.821Z,2.27
2022-12-13T04:48:32.437Z,3.30
2022-12-13T04:51:00.988Z,1.47
2022-12-13T04:53:29.419Z,1.40
2022-12-13T04:55:57.162Z,1.30
2022-12-13T04:58:26.166Z,1.50
2022-12-13T05:00:53.917Z,1.50
2022-12-13T05:03:21.666Z,1.73
2022-12-13T05:05:49.307Z,1.30
2022-12-13T05:08:17.253Z,1.40
2022-12-13T05:10:44.948Z,1.67
2022-12-13T05:13:12.618Z,2.30
2022-12-13T05:15:41.881Z,2.00
2022-12-13T05:18:11.018Z,1.40
2022-12-13T05:20:39.698Z,1.90
2022-12-13T05:23:07.622Z,1.90
2022-12-13T05:25:36.903Z,1.80
2022-12-13T05:28:08.845Z,4.90
2022-12-13T05:30:54.846Z,2.20
2022-12-13T05:33:22.901Z,2.63
2022-12-13T05:35:53.820Z,2.13
2022-12-13T05:38:24.054Z,2.93
2022-12-13T05:40:51.936Z,2.20
2022-12-13T05:43:21.389Z,1.53
2022-12-13T05:45:50.173Z,1.50
2022-12-13T05:48:24.374Z,2.53
2022-12-13T05:51:10.183Z,2.13
2022-12-13T05:53:39.889Z,3.07
2022-12-13T05:56:08.200Z,2.17
2022-12-13T05:58:36.398Z,2.00
2022-12-13T06:01:08.735Z,1.77
2022-12-13T06:03:38.171Z,1.63
2022-12-13T06:06:07.915Z,2.17
2022-12-13T06:08:35.857Z,1.60
2022-12-13T06:11:12.096Z,1.57
2022-12-13T06:13:43.235Z,1.40
2022-12-13T06:16:22.936Z,1.77
2022-12-13T06:19:01.384Z,2.10
2022-12-13T06:21:45.503Z,2.60
2022-12-13T06:24:15.098Z,1.37
2022-12-13T06:26:44.947Z,1.77
2022-12-13T06:29:13.209Z,1.40
2022-12-13T06:32:01.232Z,2.47
2022-12-13T06:34:33.316Z,1.80
2022-12-13T06:37:02.086Z,2.03
2022-12-13T06:39:32.453Z,1.73
2022-12-13T06:42:01.486Z,2.17
2022-12-13T06:44:29.237Z,3.13
2022-12-13T06:47:10.305Z,1.40
2022-12-13T06:49:43.929Z,1.70
2022-12-13T06:52:13.176Z,2.10
2022-12-13T06:54:41.531Z,1.60
2022-12-13T06:57:09.332Z,2.00
2022-12-13T06:59:37.105Z,1.90
2022-12-13T07:02:04.897Z,2.10
2022-12-13T07:04:32.721Z,1.67
2022-12-13T07:07:02.641Z,3.70
2022-12-13T07:09:30.924Z,2.07
2022-12-13T07:11:58.998Z,2.93
2022-12-13T07:14:26.657Z,2.60
2022-12-13T07:16:59.595Z,2.40
2022-12-13T07:19:35.275Z,2.37
2022-12-13T07:22:05.762Z,2.27
2022-12-13T07:24:33.881Z,2.30
2022-12-13T07:27:01.561Z,2.43
2022-12-13T07:29:29.278Z,2.90
2022-12-13T07:32:01.538Z,2.00
2022-12-13T07:34:29.667Z,2.23
2022-12-13T07:36:57.427Z,2.07
2022-12-13T07:39:26.957Z,2.10
2022-12-13T07:41:55.731Z,2.70
2022-12-13T07:44:23.677Z,2.00
2022-12-13T07:46:51.521Z,2.40
2022-12-13T07:49:19.369Z,2.83
2022-12-13T07:51:47.191Z,2.37
2022-12-13T07:54:14.853Z,2.37
2022-12-13T07:56:43.935Z,2.13
2022-12-13T07:59:11.924Z,2.43
2022-12-13T08:01:39.653Z,2.00
2022-12-13T08:04:07.586Z,3.00
2022-12-13T08:06:37.102Z,2.10
2022-12-13T08:09:05.683Z,2.10
2022-12-13T08:11:33.381Z,4.10
2022-12-13T08:14:02.487Z,2.27
2022-12-13T08:16:30.599Z,2.60
2022-12-13T08:19:03.313Z,2.50
2022-12-13T08:24:23.071Z,3.10
2022-12-13T08:26:50.726Z,2.27
2022-12-13T08:29:23.064Z,1.80
2022-12-13T08:32:01.969Z,2.63
2022-12-13T08:34:29.877Z,2.87
2022-12-13T08:37:01.132Z,2.10
2022-12-13T08:39:34.029Z,3.60
2022-12-13T08:42:16.705Z,2.27
2022-12-13T08:44:47.287Z,2.33
2022-12-13T08:47:23.396Z,3.27
2022-12-13T08:49:53.192Z,1.90
2022-12-13T08:52:22.358Z,1.87
2022-12-13T08:54:50.092Z,1.87
2022-12-13T08:57:17.799Z,3.10
2022-12-13T08:59:46.909Z,3.07
2022-12-13T09:02:15.171Z,2.20
2022-12-13T09:04:43.587Z,1.80
2022-12-13T09:07:11.431Z,1.93
2022-12-13T09:09:39.128Z,1.80
2022-12-13T09:12:10.290Z,3.27
2022-12-13T09:14:45.482Z,2.13
2022-12-13T09:17:24.303Z,1.70
2022-12-13T09:19:57.738Z,1.50
2022-12-13T09:22:33.209Z,2.47
2022-12-13T09:25:02.563Z,2.73
2022-12-13T09:27:30.945Z,3.33
2022-12-13T09:30:08.989Z,3.40
2022-12-13T09:32:38.141Z,2.67
2022-12-13T09:35:06.556Z,3.50
2022-12-13T09:37:34.507Z,2.10
2022-12-13T09:40:16.413Z,2.80
2022-12-13T09:43:12.643Z,3.80
2022-12-13T09:45:42.700Z,2.53
2022-12-13T09:51:16.719Z,2.10
2022-12-13T09:53:41.072Z,2.37
2022-12-13T09:56:11.869Z,2.00
2022-12-13T09:58:39.514Z,2.40
2022-12-13T10:01:07.363Z,2.57
2022-12-13T10:03:35.097Z,2.10
2022-12-13T10:06:22.773Z,1.90
2022-12-13T10:08:57.671Z,2.17
2022-12-13T10:11:31.487Z,2.17
2022-12-13T10:14:03.223Z,2.90
2022-12-13T10:16:39.147Z,2.20
2022-12-13T10:19:29.383Z,2.27
2022-12-13T10:22:02.166Z,2.80
2022-12-13T10:24:37.411Z,1.90
2022-12-13T10:27:13.095Z,3.17
2022-12-13T10:30:00.043Z,2.50
2022-12-13T10:32:27.845Z,2.93
2022-12-13T10:34:56.328Z,2.83
2022-12-13T10:37:32.018Z,4.10
2022-12-13T10:40:00.154Z,2.20
2022-12-13T10:42:33.666Z,2.30
2022-12-13T10:45:16.156Z,3.13
2022-12-13T10:47:51.526Z,3.07
2022-12-13T10:50:25.441Z,3.70
2022-12-13T10:52:55.559Z,2.80
2022-12-13T10:55:29.900Z,2.63
2022-12-13T10:58:01.298Z,2.97
2022-12-13T11:00:38.781Z,3.03
2022-12-13T11:03:06.831Z,2.50
2022-12-13T11:05:36.047Z,3.13
2022-12-13T11:08:23.394Z,3.10
2022-12-13T11:10:58.344Z,2.13
2022-12-13T11:13:36.909Z,1.93
2022-12-13T11:16:06.122Z,2.80
2022-12-13T11:18:37.251Z,2.50
2022-12-13T11:21:07.681Z,2.23
2022-12-13T11:23:39.435Z,2.90
2022-12-13T11:26:09.773Z,3.30
2022-12-13T11:29:02.313Z,2.60
2022-12-13T11:31:34.729Z,12.10
2022-12-13T11:34:07.437Z,10.00
2022-12-13T11:36:44.088Z,6.90
2022-12-13T11:39:19.629Z,6.07
2022-12-13T11:41:53.275Z,4.50
2022-12-13T11:44:26.778Z,4.03
2022-12-13T11:46:56.992Z,3.83
2022-12-13T11:49:33.332Z,3.30
2022-12-13T11:52:06.608Z,3.03
2022-12-13T11:54:41.226Z,3.93
2022-12-13T11:57:20.387Z,4.30
2022-12-13T11:59:52.228Z,3.07
2022-12-13T12:02:22.164Z,2.53
2022-12-13T12:04:56.649Z,2.73
2022-12-13T12:07:33.557Z,3.37
2022-12-13T12:10:15.076Z,2.83
2022-12-13T12:12:44.177Z,2.33
2022-12-13T12:15:16.697Z,2.93
2022-12-13T12:17:45.028Z,2.83
2022-12-13T12:20:14.434Z,2.23
2022-12-13T12:22:56.097Z,2.37
2022-12-13T12:25:31.911Z,2.57
2022-12-13T12:28:04.968Z,2.63
2022-12-13T12:30:38.130Z,2.70
2022-12-13T12:33:13.607Z,2.50
2022-12-13T12:36:07.914Z,3.07
2022-12-13T12:38:50.954Z,2.97
2022-12-13T12:41:28.248Z,2.70
2022-12-13T12:43:57.675Z,2.77
2022-12-13T12:47:18.079Z,3.03
2022-12-13T12:49:55.772Z,3.57
2022-12-13T12:52:29.248Z,3.10
2022-12-13T12:55:04.033Z,2.43
2022-12-13T12:57:40.846Z,2.30
2022-12-13T13:00:12.099Z,2.57
2022-12-13T13:02:44.082Z,2.97
2022-12-13T13:05:18.255Z,2.83
2022-12-13T13:07:51.396Z,2.73
2022-12-13T13:10:26.789Z,2.53
2022-12-13T13:13:11.421Z,3.20
2022-12-13T13:15:57.395Z,3.17
2022-12-13T13:18:49.323Z,3.63
2022-12-13T13:21:50.466Z,3.33
2022-12-13T13:24:22.978Z,3.80
2022-12-13T13:26:53.312Z,4.07
2022-12-13T13:29:44.168Z,4.37
2022-12-13T13:32:31.674Z,6.03
2022-12-13T13:35:53.293Z,5.77
2022-12-13T13:38:43.783Z,4.13
2022-12-13T13:41:56.330Z,3.43
2022-12-13T13:44:51.822Z,5.20
2022-12-13T13:47:34.839Z,2.87
2022-12-13T13:50:17.250Z,2.87
2022-12-13T13:52:50.210Z,2.50
2022-12-13T13:55:45.588Z,2.87
2022-12-13T13:58:34.271Z,3.53
2022-12-13T14:01:23.877Z,4.60
2022-12-13T14:04:11.004Z,5.47
2022-12-13T14:07:01.466Z,6.50
2022-12-13T14:09:55.011Z,6.43
2022-12-13T14:13:01.204Z,6.57
2022-12-13T14:15:56.355Z,5.00
2022-12-13T14:19:23.930Z,4.70
2022-12-13T14:22:03.524Z,6.83
2022-12-13T14:24:40.482Z,4.77
2022-12-13T14:27:20.131Z,5.07
2022-12-13T14:29:58.295Z,5.53
2022-12-13T14:32:28.621Z,6.77
2022-12-13T14:34:57.003Z,8.33
2022-12-13T14:37:30.482Z,6.83
2022-12-13T14:39:58.780Z,6.77
2022-12-13T14:42:29.750Z,6.83
2022-12-13T14:44:58.252Z,6.27
2022-12-13T14:47:26.741Z,6.33
2022-12-13T14:49:55.731Z,7.17
2022-12-13T14:52:26.096Z,5.23
2022-12-13T14:54:59.342Z,6.40
2022-12-13T14:57:28.876Z,5.83
2022-12-13T14:59:58.134Z,5.23
2022-12-13T15:02:30.693Z,5.53
2022-12-13T15:05:00.434Z,5.20
2022-12-13T15:07:30.423Z,6.47
2022-12-13T15:10:01.809Z,6.23
2022-12-13T15:12:30.027Z,6.47
2022-12-13T15:15:01.062Z,7.00
2022-12-13T15:17:32.342Z,6.90
2022-12-13T15:20:01.173Z,6.70
2022-12-13T15:22:30.160Z,7.37
2022-12-13T15:24:59.594Z,8.67
2022-12-13T15:27:27.730Z,6.50
2022-12-13T15:29:56.099Z,6.00
2022-12-13T15:32:24.147Z,5.87
2022-12-13T15:34:52.483Z,5.97
2022-12-13T15:37:29.565Z,6.20
2022-12-13T15:40:01.770Z,5.87
2022-12-13T15:42:32.052Z,7.53
2022-12-13T15:45:01.760Z,7.50
2022-12-13T15:47:29.639Z,7.63
2022-12-13T15:49:59.320Z,8.83
2022-12-13T15:52:36.606Z,7.87
2022-12-13T15:58:01.451Z,8.27
2022-12-13T16:00:31.863Z,8.20
2022-12-13T16:03:09.768Z,7.77
2022-12-13T16:05:39.309Z,6.60
2022-12-13T16:08:13.636Z,8.80
2022-12-13T16:10:47.566Z,8.00
2022-12-13T16:13:26.109Z,10.73
2022-12-13T16:15:59.855Z,8.10
2022-12-13T16:18:44.089Z,7.47
2022-12-13T16:21:11.781Z,7.03
2022-12-13T16:23:39.414Z,6.23
2022-12-13T16:26:09.111Z,8.00
2022-12-13T16:28:38.452Z,6.97
2022-12-13T16:31:15.359Z,8.87
2022-12-13T16:33:43.732Z,7.80
2022-12-13T16:36:11.770Z,8.77
2022-12-13T16:38:39.614Z,9.07
2022-12-13T16:41:08.700Z,7.23
2022-12-13T16:43:41.515Z,7.17
2022-12-13T16:47:12.189Z,7.67
2022-12-13T16:49:06.966Z,8.00
2022-12-13T16:51:34.852Z,7.90
2022-12-13T16:54:03.322Z,7.57
2022-12-13T16:56:30.967Z,8.50
2022-12-13T16:58:59.956Z,6.43
2022-12-13T17:01:29.530Z,8.87
2022-12-13T17:03:57.313Z,7.60
2022-12-13T17:06:25.062Z,8.10
2022-12-13T17:08:52.802Z,7.10
2022-12-13T17:11:20.499Z,7.63
2022-12-13T17:13:49.595Z,8.40
2022-12-13T17:16:18.864Z,6.07
2022-12-13T17:18:46.673Z,6.60
2022-12-13T17:21:14.571Z,6.03
2022-12-13T17:23:42.286Z,7.90
2022-12-13T17:26:11.114Z,7.07
2022-12-13T17:28:39.334Z,6.00
2022-12-13T17:31:08.435Z,5.00
2022-12-13T17:33:37.547Z,5.20
2022-12-13T17:36:06.177Z,6.07
2022-12-13T17:38:34.194Z,5.87
2022-12-13T17:41:01.892Z,8.03
2022-12-13T17:43:34.825Z,5.87
2022-12-13T17:46:04.791Z,6.87
2022-12-13T17:48:39.579Z,5.73
2022-12-13T17:51:10.440Z,6.17
2022-12-13T17:53:40.257Z,5.23
2022-12-13T17:56:09.367Z,5.77
2022-12-13T17:58:38.462Z,5.70
2022-12-13T18:01:14.982Z,6.07
2022-12-13T18:03:42.766Z,6.80
2022-12-13T18:06:12.068Z,7.93
2022-12-13T18:08:40.543Z,10.53
2022-12-13T18:11:31.805Z,8.50
2022-12-13T18:13:57.016Z,9.00
2022-12-13T18:16:32.132Z,7.60
2022-12-13T18:19:05.896Z,8.33
2022-12-13T18:21:35.276Z,7.97
2022-12-13T18:24:03.121Z,7.27
2022-12-13T18:26:30.872Z,7.87
2022-12-13T18:28:58.519Z,7.83
2022-12-13T18:31:27.951Z,8.33
2022-12-13T18:33:55.741Z,7.77
2022-12-13T18:36:25.143Z,7.47
2022-12-13T18:38:54.298Z,7.17
2022-12-13T18:41:24.306Z,7.13
2022-12-13T18:43:55.668Z,6.03
2022-12-13T18:46:23.316Z,6.93
2022-12-13T18:48:51.088Z,6.87
2022-12-13T18:51:19.389Z,6.00
2022-12-13T18:53:47.071Z,5.70
2022-12-13T18:56:19.217Z,5.27
2022-12-13T18:58:47.964Z,7.10
2022-12-13T19:01:16.670Z,5.80
2022-12-13T19:03:46.585Z,6.27
2022-12-13T19:06:17.603Z,5.73
2022-12-13T19:08:48.081Z,5.23
2022-12-13T19:11:17.246Z,6.10
2022-12-13T19:13:45.024Z,6.37
2022-12-13T19:16:15.692Z,6.03
2022-12-13T19:18:43.599Z,5.67
2022-12-13T19:21:14.840Z,5.60
2022-12-13T19:23:42.801Z,6.23
2022-12-13T19:26:13.121Z,7.13
2022-12-13T19:28:42.934Z,5.70
2022-12-13T19:31:11.543Z,6.93
2022-12-13T19:33:39.451Z,6.80
2022-12-13T19:36:08.749Z,6.47
2022-12-13T19:38:36.451Z,5.30
2022-12-13T19:41:08.663Z,6.23
2022-12-13T19:43:36.371Z,5.63
2022-12-13T19:46:06.098Z,5.53
2022-12-13T19:48:34.336Z,6.23
2022-12-13T19:51:03.036Z,5.93
2022-12-13T19:53:31.041Z,7.60
2022-12-13T19:55:58.881Z,5.80
2022-12-13T19:58:27.165Z,6.17
2022-12-13T20:01:01.974Z,7.43
2022-12-13T20:03:32.688Z,6.87
2022-12-13T20:06:01.483Z,7.00
2022-12-13T20:08:29.558Z,7.13
2022-12-13T20:11:01.617Z,7.73
2022-12-13T20:13:29.988Z,6.70
2022-12-13T20:15:58.359Z,6.40
2022-12-13T20:18:26.351Z,6.40
2022-12-13T20:21:11.791Z,6.00
2022-12-13T20:23:40.466Z,5.50
2022-12-13T20:26:09.839Z,6.30
2022-12-13T20:28:37.795Z,7.60
2022-12-13T20:31:06.822Z,6.83
2022-12-13T20:33:34.737Z,7.90
2022-12-13T20:36:28.033Z,6.23
2022-12-13T20:38:53.180Z,6.60
2022-12-13T20:41:20.831Z,6.07
2022-12-13T20:43:52.349Z,7.63
2022-12-13T20:46:20.395Z,5.60
2022-12-13T20:48:49.514Z,5.80
2022-12-13T20:51:21.638Z,5.60
2022-12-13T20:53:50.437Z,7.00
2022-12-13T20:56:19.817Z,6.63
2022-12-13T20:58:47.532Z,6.40
2022-12-13T21:01:16.522Z,7.70
2022-12-13T21:03:44.278Z,7.80
2022-12-13T21:06:12.331Z,8.70
2022-12-13T21:08:54.010Z,9.87
2022-12-13T21:11:26.381Z,7.83
2022-12-13T21:13:56.423Z,8.33
2022-12-13T21:16:24.811Z,8.63
2022-12-13T21:18:54.056Z,7.67
2022-12-13T21:21:22.182Z,8.17
2022-12-13T21:23:51.495Z,7.07
2022-12-13T21:26:19.517Z,7.87
2022-12-13T21:28:48.735Z,7.23
2022-12-13T21:31:23.198Z,7.90
2022-12-13T21:33:51.903Z,8.67
2022-12-13T21:36:21.044Z,8.10
2022-12-13T21:38:49.400Z,7.97
2022-12-13T21:41:18.406Z,9.30
2022-12-13T21:43:48.312Z,8.17
2022-12-13T21:46:17.469Z,8.70
2022-12-13T21:48:45.924Z,7.40
2022-12-13T21:51:15.081Z,8.00
2022-12-13T21:53:43.032Z,9.10
2022-12-13T21:56:30.736Z,8.13
2022-12-13T21:59:17.973Z,7.20
2022-12-13T22:02:08.479Z,8.97
2022-12-13T22:04:37.794Z,7.83
2022-12-13T22:07:06.698Z,9.20
2022-12-13T22:09:34.747Z,8.33
2022-12-13T22:12:02.804Z,7.83
2022-12-13T22:14:31.850Z,7.70
2022-12-13T22:16:59.565Z,7.10
2022-12-13T22:19:27.215Z,6.63
2022-12-13T22:21:54.924Z,7.00
2022-12-13T22:24:22.658Z,7.00
2022-12-13T22:26:50.321Z,6.40
2022-12-13T22:29:18.068Z,6.43
2022-12-13T22:31:49.052Z,8.20
2022-12-13T22:34:17.350Z,7.53
2022-12-13T22:36:45.078Z,7.63
2022-12-13T22:39:16.830Z,7.27
2022-12-13T22:41:44.847Z,9.17
2022-12-13T22:44:13.596Z,7.60
2022-12-13T22:46:41.651Z,7.60
2022-12-13T22:49:11.648Z,8.17
2022-12-13T22:51:39.525Z,7.93
2022-12-13T22:54:07.543Z,6.73
2022-12-13T22:56:35.204Z,6.90
2022-12-13T22:59:04.174Z,8.77
2022-12-13T23:01:33.333Z,7.37
2022-12-13T23:04:01.327Z,7.37
2022-12-13T23:06:31.438Z,8.30
2022-12-13T23:09:00.258Z,8.57
2022-12-13T23:11:46.630Z,8.47
2022-12-13T23:14:17.366Z,8.80
2022-12-13T23:16:45.165Z,7.77
2022-12-13T23:19:41.101Z,6.57
2022-12-13T23:22:06.234Z,6.83
2022-12-13T23:24:34.007Z,8.53
2022-12-13T23:27:01.681Z,9.33
2022-12-13T23:29:29.381Z,9.13
2022-12-13T23:31:57.078Z,10.57
2022-12-13T23:34:24.858Z,9.53
2022-12-13T23:36:52.526Z,7.90
2022-12-13T23:39:21.673Z,8.33
2022-12-13T23:41:49.393Z,9.90
2022-12-13T23:44:17.009Z,8.77
2022-12-13T23:46:46.479Z,8.80
2022-12-13T23:49:16.719Z,9.57
2022-12-13T23:51:44.510Z,8.87
2022-12-13T23:54:16.297Z,8.33
2022-12-13T23:56:45.535Z,8.03
2022-12-13T23:59:13.444Z,8.27
